createdAt,value
2023-03-26T00:01:34.112Z,84.02
2023-03-26T00:04:01.283Z,83.77
2023-03-26T00:06:36.826Z,83.44
2023-03-26T00:09:05.896Z,83.42
2023-03-26T00:11:32.860Z,83.04
2023-03-26T00:14:00.041Z,83.10
2023-03-26T00:16:30.131Z,83.63
2023-03-26T00:18:58.811Z,84.42
2023-03-26T00:21:28.873Z,85.14
2023-03-26T00:24:06.212Z,85.74
2023-03-26T00:26:35.634Z,85.89
2023-03-26T00:29:04.032Z,85.96
2023-03-26T00:31:32.003Z,85.76
2023-03-26T00:33:59.554Z,85.64
2023-03-26T00:36:27.278Z,85.50
2023-03-26T00:38:54.797Z,85.23
2023-03-26T00:41:25.645Z,85.09
2023-03-26T00:43:58.058Z,84.87
2023-03-26T00:46:26.722Z,84.41
2023-03-26T00:48:54.585Z,83.15
2023-03-26T00:51:22.111Z,82.33
2023-03-26T00:53:50.798Z,82.12
2023-03-26T00:56:19.075Z,81.79
2023-03-26T00:58:47.661Z,81.74
2023-03-26T01:01:18.990Z,81.54
2023-03-26T01:04:00.823Z,80.66
2023-03-26T01:06:36.044Z,80.51
2023-03-26T01:09:13.850Z,81.32
2023-03-26T01:11:41.418Z,81.74
2023-03-26T01:14:13.205Z,82.05
2023-03-26T01:16:58.102Z,82.01
2023-03-26T01:19:57.678Z,81.88
2023-03-26T01:22:27.605Z,82.24
2023-03-26T01:24:56.974Z,82.08
2023-03-26T01:27:42.339Z,81.81
2023-03-26T01:30:24.420Z,81.21
2023-03-26T01:33:18.541Z,81.18
2023-03-26T01:35:56.232Z,81.33
2023-03-26T01:38:33.179Z,81.78
2023-03-26T01:41:10.880Z,81.74
2023-03-26T01:43:46.652Z,81.72
2023-03-26T01:46:16.258Z,81.92
2023-03-26T01:48:45.915Z,81.62
2023-03-26T01:51:24.991Z,81.46
2023-03-26T01:53:54.573Z,81.72
2023-03-26T01:56:32.218Z,81.76
2023-03-26T01:59:21.406Z,81.79
2023-03-26T02:02:04.899Z,82.10
2023-03-26T02:04:35.999Z,81.62
2023-03-26T02:07:09.358Z,81.22
2023-03-26T02:09:47.423Z,80.93
2023-03-26T02:12:16.257Z,80.82
2023-03-26T02:14:44.473Z,80.98
2023-03-26T02:17:12.080Z,80.94
2023-03-26T02:19:42.390Z,80.81
2023-03-26T02:22:11.384Z,80.78
2023-03-26T02:24:38.935Z,80.88
2023-03-26T02:27:07.829Z,81.05
2023-03-26T02:29:37.927Z,81.30
2023-03-26T02:32:06.853Z,81.14
2023-03-26T02:34:34.028Z,81.15
2023-03-26T02:37:01.163Z,81.20
2023-03-26T02:39:28.940Z,81.19
2023-03-26T02:41:59.618Z,81.00
2023-03-26T02:44:29.135Z,80.91
2023-03-26T02:47:19.160Z,80.46
2023-03-26T02:49:51.869Z,80.43
2023-03-26T02:52:45.445Z,80.66
2023-03-26T02:55:12.777Z,80.91
2023-03-26T02:57:41.321Z,80.65
2023-03-26T03:00:14.505Z,80.66
2023-03-26T03:02:50.714Z,80.28
2023-03-26T03:05:47.327Z,79.72
2023-03-26T03:08:28.635Z,79.98
2023-03-26T03:11:22.588Z,79.62
2023-03-26T03:13:50.811Z,78.47
2023-03-26T03:16:21.826Z,78.52
2023-03-26T03:18:57.850Z,78.66
2023-03-26T03:21:34.419Z,79.24
2023-03-26T03:24:02.013Z,79.30
2023-03-26T03:26:34.240Z,80.13
2023-03-26T03:29:13.102Z,80.33
2023-03-26T03:31:41.390Z,80.44
2023-03-26T03:34:18.588Z,80.36
2023-03-26T03:36:50.103Z,80.70
2023-03-26T03:39:38.359Z,80.49
2023-03-26T03:42:05.433Z,79.26
2023-03-26T03:44:33.653Z,79.30
2023-03-26T03:47:04.350Z,79.62
2023-03-26T03:49:31.254Z,79.43
2023-03-26T03:51:59.142Z,79.58
2023-03-26T03:54:32.230Z,79.95
2023-03-26T03:57:10.612Z,80.07
2023-03-26T03:59:47.950Z,79.89
2023-03-26T04:02:34.930Z,79.55
2023-03-26T04:05:06.692Z,79.68
2023-03-26T04:07:35.375Z,80.48
2023-03-26T04:10:05.960Z,80.51
2023-03-26T04:12:52.304Z,80.44
2023-03-26T04:15:23.897Z,80.27
2023-03-26T04:17:52.654Z,79.98
2023-03-26T04:20:20.968Z,80.08
2023-03-26T04:22:49.811Z,80.11
2023-03-26T04:25:19.118Z,79.82
2023-03-26T04:27:58.520Z,79.98
2023-03-26T04:30:45.048Z,79.56
2023-03-26T04:33:33.663Z,79.26
2023-03-26T04:36:03.489Z,78.88
2023-03-26T04:38:42.282Z,78.74
2023-03-26T04:41:13.172Z,78.71
2023-03-26T04:43:50.829Z,79.04
2023-03-26T04:46:25.160Z,79.31
2023-03-26T04:49:03.493Z,79.48
2023-03-26T04:51:42.106Z,79.75
2023-03-26T04:54:25.095Z,79.27
2023-03-26T04:57:05.599Z,79.40
2023-03-26T04:59:43.558Z,79.69
2023-03-26T05:02:14.221Z,79.82
2023-03-26T05:04:53.834Z,78.55
2023-03-26T05:07:24.292Z,78.79
2023-03-26T05:09:57.536Z,78.58
2023-03-26T05:12:44.028Z,77.59
2023-03-26T05:15:18.722Z,77.92
2023-03-26T05:18:04.546Z,76.95
2023-03-26T05:20:58.063Z,77.18
2023-03-26T05:23:26.557Z,77.11
2023-03-26T05:26:07.752Z,76.78
2023-03-26T05:28:36.662Z,76.28
2023-03-26T05:31:15.600Z,76.32
2023-03-26T05:33:46.988Z,76.46
2023-03-26T05:36:15.967Z,75.95
2023-03-26T05:38:49.997Z,76.02
2023-03-26T05:41:55.847Z,74.96
2023-03-26T05:44:29.434Z,74.77
2023-03-26T05:46:57.058Z,74.70
2023-03-26T05:49:26.320Z,74.73
2023-03-26T05:51:55.537Z,75.16
2023-03-26T05:54:54.955Z,75.09
2023-03-26T05:57:42.433Z,74.74
2023-03-26T06:00:39.094Z,74.61
2023-03-26T06:03:12.792Z,73.37
2023-03-26T06:06:15.940Z,72.50
2023-03-26T06:09:02.247Z,71.10
2023-03-26T06:11:32.065Z,70.58
2023-03-26T06:14:01.365Z,70.53
2023-03-26T06:16:28.539Z,70.03
2023-03-26T06:19:15.886Z,70.86
2023-03-26T06:22:06.006Z,70.26
2023-03-26T06:24:49.262Z,71.86
2023-03-26T06:27:23.848Z,70.21
2023-03-26T06:30:10.037Z,70.74
2023-03-26T06:32:53.100Z,71.45
2023-03-26T06:35:24.720Z,70.90
2023-03-26T06:37:52.477Z,69.49
2023-03-26T06:40:19.382Z,69.62
2023-03-26T06:43:07.934Z,68.60
2023-03-26T06:45:55.778Z,64.91
2023-03-26T06:48:43.180Z,64.98
2023-03-26T06:51:13.520Z,65.05
2023-03-26T06:53:59.047Z,64.24
2023-03-26T06:56:45.186Z,65.39
2023-03-26T06:59:44.478Z,62.09
2023-03-26T07:02:37.321Z,63.54
2023-03-26T07:05:42.556Z,61.09
2023-03-26T07:08:31.653Z,63.52
2023-03-26T07:11:19.599Z,60.25
2023-03-26T07:14:05.915Z,59.40
2023-03-26T07:16:38.735Z,58.48
2023-03-26T07:19:35.774Z,56.45
2023-03-26T07:22:03.670Z,55.58
2023-03-26T07:24:51.718Z,55.68
2023-03-26T07:27:46.982Z,54.93
2023-03-26T07:30:49.606Z,53.65
2023-03-26T07:33:59.343Z,53.88
2023-03-26T07:36:56.434Z,53.07
2023-03-26T07:40:09.919Z,55.23
2023-03-26T07:43:33.394Z,50.02
2023-03-26T07:46:32.499Z,52.56
2023-03-26T07:49:23.456Z,50.80
2023-03-26T07:52:16.931Z,51.78
2023-03-26T07:54:47.389Z,51.59
2023-03-26T07:57:48.013Z,51.58
2023-03-26T08:00:37.941Z,52.01
2023-03-26T08:03:12.146Z,53.18
2023-03-26T08:06:20.355Z,54.40
2023-03-26T08:09:08.962Z,56.91
2023-03-26T08:12:02.787Z,56.24
2023-03-26T08:14:53.343Z,59.29
2023-03-26T08:18:00.226Z,58.19
2023-03-26T08:20:48.359Z,58.58
2023-03-26T08:23:33.037Z,58.79
2023-03-26T08:26:18.831Z,60.02
2023-03-26T08:29:02.891Z,60.38
2023-03-26T08:31:36.990Z,57.56
2023-03-26T08:34:04.232Z,57.71
2023-03-26T08:36:31.328Z,57.19
2023-03-26T08:39:01.915Z,52.80
2023-03-26T08:41:54.377Z,53.86
2023-03-26T08:44:45.819Z,52.42
2023-03-26T08:48:04.001Z,53.25
2023-03-26T08:50:58.240Z,52.63
2023-03-26T08:53:44.026Z,54.60
2023-03-26T08:56:51.516Z,54.34
2023-03-26T08:59:39.954Z,50.89
2023-03-26T09:02:35.890Z,52.95
2023-03-26T09:05:44.559Z,50.66
2023-03-26T09:08:30.882Z,48.56
2023-03-26T09:11:11.876Z,47.15
2023-03-26T09:13:59.538Z,45.99
2023-03-26T09:16:59.933Z,43.21
2023-03-26T09:19:55.989Z,39.92
2023-03-26T09:22:48.499Z,40.00
2023-03-26T09:25:41.999Z,39.98
2023-03-26T09:28:12.928Z,37.12
2023-03-26T09:31:05.026Z,40.57
2023-03-26T09:33:39.066Z,39.04
2023-03-26T09:36:21.927Z,39.14
2023-03-26T09:38:57.223Z,38.50
2023-03-26T09:41:36.843Z,33.83
2023-03-26T09:44:10.226Z,35.98
2023-03-26T09:47:19.896Z,36.35
2023-03-26T09:50:21.689Z,33.68
2023-03-26T09:53:27.392Z,31.97
2023-03-26T09:56:28.209Z,34.55
2023-03-26T09:59:07.479Z,33.06
2023-03-26T10:01:46.967Z,35.69
2023-03-26T10:04:14.043Z,34.42
2023-03-26T10:06:56.675Z,33.73
2023-03-26T10:09:45.536Z,32.44
2023-03-26T10:12:12.334Z,34.19
2023-03-26T10:15:09.598Z,34.53
2023-03-26T10:17:36.480Z,36.57
2023-03-26T10:20:29.985Z,35.33
2023-03-26T10:23:16.042Z,36.50
2023-03-26T10:26:05.049Z,38.34
2023-03-26T10:28:57.407Z,38.97
2023-03-26T10:31:36.375Z,40.47
2023-03-26T10:34:43.236Z,41.10
2023-03-26T10:37:45.867Z,41.72
2023-03-26T10:41:04.495Z,41.10
2023-03-26T10:44:09.233Z,42.45
2023-03-26T10:47:06.940Z,39.99
2023-03-26T10:49:42.656Z,41.38
2023-03-26T10:52:18.762Z,39.72
2023-03-26T10:55:09.895Z,40.65
2023-03-26T10:57:53.683Z,41.03
2023-03-26T11:00:27.182Z,39.45
2023-03-26T11:03:03.459Z,39.97
2023-03-26T11:05:52.017Z,40.52
2023-03-26T11:08:34.683Z,39.84
2023-03-26T11:11:01.582Z,37.08
2023-03-26T11:13:36.509Z,37.04
2023-03-26T11:16:49.931Z,38.13
2023-03-26T11:19:20.313Z,36.05
2023-03-26T11:22:00.596Z,35.31
2023-03-26T11:24:42.499Z,33.51
2023-03-26T11:27:44.651Z,32.35
2023-03-26T11:30:37.948Z,27.02
2023-03-26T11:33:10.039Z,28.96
2023-03-26T11:35:46.253Z,30.04
2023-03-26T11:38:38.316Z,32.12
2023-03-26T11:41:33.632Z,28.37
2023-03-26T11:44:28.141Z,24.59
2023-03-26T11:47:04.687Z,22.82
2023-03-26T11:49:32.869Z,22.75
2023-03-26T11:52:01.144Z,22.27
2023-03-26T11:54:28.013Z,23.38
2023-03-26T11:57:14.738Z,20.92
2023-03-26T11:59:56.518Z,21.47
2023-03-26T12:02:34.162Z,22.46
2023-03-26T12:05:21.628Z,21.26
2023-03-26T12:07:59.085Z,22.09
2023-03-26T12:10:38.686Z,23.56
2023-03-26T12:13:34.026Z,22.05
2023-03-26T12:16:14.979Z,23.97
2023-03-26T12:18:44.597Z,21.98
2023-03-26T12:21:17.201Z,22.76
2023-03-26T12:24:00.993Z,21.08
2023-03-26T12:26:31.794Z,21.44
2023-03-26T12:29:06.892Z,21.25
2023-03-26T12:31:56.999Z,20.55
2023-03-26T12:34:32.351Z,20.91
2023-03-26T12:37:02.676Z,20.63
2023-03-26T12:40:07.208Z,20.69
2023-03-26T12:44:48.224Z,21.43
2023-03-26T12:45:31.304Z,21.72
2023-03-26T12:48:04.334Z,22.08
2023-03-26T12:50:57.539Z,21.49
2023-03-26T12:53:38.151Z,21.92
2023-03-26T12:56:22.381Z,21.61
2023-03-26T12:59:29.929Z,22.08
2023-03-26T13:02:32.805Z,21.22
2023-03-26T13:05:09.858Z,21.48
2023-03-26T13:07:58.526Z,21.92
2023-03-26T13:11:05.517Z,21.63
2023-03-26T13:13:56.420Z,20.73
2023-03-26T13:16:31.351Z,20.70
2023-03-26T13:19:24.160Z,21.65
2023-03-26T13:21:53.102Z,21.64
2023-03-26T13:24:51.634Z,21.09
2023-03-26T13:27:18.347Z,20.26
2023-03-26T13:30:04.240Z,19.18
2023-03-26T13:32:59.151Z,19.38
2023-03-26T13:36:00.684Z,19.89
2023-03-26T13:39:02.162Z,19.27
2023-03-26T13:41:50.824Z,19.89
2023-03-26T13:45:04.859Z,19.77
2023-03-26T13:47:37.308Z,19.70
2023-03-26T13:50:25.726Z,19.79
2023-03-26T13:52:58.730Z,19.07
2023-03-26T13:55:38.034Z,19.92
2023-03-26T13:58:11.034Z,20.04
2023-03-26T14:01:05.319Z,19.86
2023-03-26T14:04:04.452Z,18.83
2023-03-26T14:06:58.313Z,18.81
2023-03-26T14:09:34.979Z,18.54
2023-03-26T14:12:22.133Z,17.96
2023-03-26T14:14:49.576Z,18.19
2023-03-26T14:17:41.202Z,18.82
2023-03-26T14:20:32.828Z,18.70
2023-03-26T14:23:29.117Z,19.40
2023-03-26T14:26:09.835Z,19.02
2023-03-26T14:29:14.665Z,18.54
2023-03-26T14:32:35.605Z,16.87
2023-03-26T14:35:14.013Z,16.98
2023-03-26T14:38:15.381Z,16.61
2023-03-26T14:41:11.584Z,15.80
2023-03-26T14:44:00.792Z,15.80
2023-03-26T14:46:35.692Z,16.51
2023-03-26T14:49:11.598Z,16.73
2023-03-26T14:51:52.223Z,17.19
2023-03-26T14:54:23.240Z,17.04
2023-03-26T14:57:11.394Z,17.37
2023-03-26T15:00:11.463Z,16.96
2023-03-26T15:03:40.539Z,17.49
2023-03-26T15:06:27.166Z,17.38
2023-03-26T15:09:03.896Z,18.02
2023-03-26T15:12:12.554Z,18.04
2023-03-26T15:14:44.964Z,18.05
2023-03-26T15:17:21.266Z,17.74
2023-03-26T15:20:06.349Z,18.02
2023-03-26T15:23:03.772Z,18.27
2023-03-26T15:25:49.634Z,17.59
2023-03-26T15:28:49.353Z,18.13
2023-03-26T15:31:51.004Z,18.42
2023-03-26T15:34:42.845Z,18.86
2023-03-26T15:37:28.849Z,19.20
2023-03-26T15:40:13.330Z,20.16
2023-03-26T15:43:09.353Z,19.49
2023-03-26T15:45:42.642Z,19.15
2023-03-26T15:48:12.529Z,19.69
2023-03-26T15:51:28.518Z,20.05
2023-03-26T15:53:55.921Z,20.48
2023-03-26T15:56:54.993Z,20.19
2023-03-26T16:00:15.457Z,20.21
2023-03-26T16:03:12.241Z,21.05
2023-03-26T16:06:14.707Z,21.54
2023-03-26T16:09:08.584Z,21.79
2023-03-26T16:11:55.840Z,21.88
2023-03-26T16:14:26.418Z,22.46
2023-03-26T16:16:54.097Z,22.75
2023-03-26T16:19:21.886Z,23.08
2023-03-26T16:22:07.624Z,22.85
2023-03-26T16:24:40.977Z,22.92
2023-03-26T16:27:15.320Z,23.00
2023-03-26T16:30:09.592Z,22.31
2023-03-26T16:32:48.455Z,22.76
2023-03-26T16:35:15.617Z,22.51
2023-03-26T16:38:10.788Z,22.99
2023-03-26T16:40:51.438Z,23.19
2023-03-26T16:43:58.811Z,24.78
2023-03-26T16:46:43.788Z,24.69
2023-03-26T16:49:35.274Z,25.14
2023-03-26T16:52:07.566Z,25.20
2023-03-26T16:55:20.670Z,26.09
2023-03-26T16:57:58.287Z,25.19
2023-03-26T17:00:41.885Z,25.42
2023-03-26T17:03:39.069Z,25.62
2023-03-26T17:06:29.423Z,25.55
2023-03-26T17:09:17.588Z,26.01
2023-03-26T17:11:58.060Z,26.62
2023-03-26T17:14:48.899Z,27.07
2023-03-26T17:17:36.845Z,27.87
2023-03-26T17:20:26.293Z,29.06
2023-03-26T17:23:21.626Z,30.76
2023-03-26T17:26:26.549Z,31.01
2023-03-26T17:29:25.621Z,30.66
2023-03-26T17:32:01.067Z,28.86
2023-03-26T17:34:48.836Z,28.82
2023-03-26T17:37:21.671Z,29.46
2023-03-26T17:40:01.576Z,32.23
2023-03-26T17:42:33.456Z,34.93
2023-03-26T17:45:15.819Z,35.64
2023-03-26T17:47:50.428Z,36.71
2023-03-26T17:50:22.968Z,38.36
2023-03-26T17:52:57.620Z,37.37
2023-03-26T17:55:34.168Z,38.78
2023-03-26T17:58:07.573Z,38.68
2023-03-26T18:00:44.821Z,39.39
2023-03-26T18:03:19.814Z,39.65
2023-03-26T18:05:47.800Z,38.72
2023-03-26T18:08:26.639Z,38.14
2023-03-26T18:11:14.449Z,38.57
2023-03-26T18:14:15.540Z,38.94
2023-03-26T18:16:51.570Z,38.88
2023-03-26T18:19:23.026Z,39.60
2023-03-26T18:21:58.260Z,39.37
2023-03-26T18:24:45.146Z,39.94
2023-03-26T18:27:15.778Z,40.33
2023-03-26T18:30:01.984Z,40.47
2023-03-26T18:32:34.185Z,41.52
2023-03-26T18:35:17.133Z,42.07
2023-03-26T18:37:46.136Z,42.90
2023-03-26T18:40:20.561Z,42.06
2023-03-26T18:43:01.652Z,41.47
2023-03-26T18:45:36.706Z,42.87
2023-03-26T18:48:19.790Z,43.57
2023-03-26T18:50:51.906Z,43.60
2023-03-26T18:53:23.569Z,42.36
2023-03-26T18:55:51.801Z,42.30
2023-03-26T18:58:31.443Z,42.19
2023-03-26T19:01:23.853Z,43.10
2023-03-26T19:03:54.287Z,44.46
2023-03-26T19:06:23.855Z,45.84
2023-03-26T19:08:53.574Z,45.99
2023-03-26T19:11:21.681Z,46.36
2023-03-26T19:14:15.873Z,47.24
2023-03-26T19:16:50.858Z,47.78
2023-03-26T19:19:23.177Z,47.39
2023-03-26T19:21:51.621Z,43.60
2023-03-26T19:24:21.418Z,39.42
2023-03-26T19:26:48.836Z,45.84
2023-03-26T19:29:20.212Z,44.61
2023-03-26T19:31:53.390Z,45.81
2023-03-26T19:34:26.440Z,46.05
2023-03-26T19:37:01.833Z,47.23
2023-03-26T19:39:42.054Z,47.73
2023-03-26T19:42:15.170Z,46.55
2023-03-26T19:44:43.572Z,47.05
2023-03-26T19:47:31.877Z,46.94
2023-03-26T19:50:28.419Z,47.33
2023-03-26T19:53:22.466Z,47.46
2023-03-26T19:56:11.775Z,47.45
2023-03-26T19:58:42.526Z,48.33
2023-03-26T20:01:24.922Z,48.39
2023-03-26T20:03:58.115Z,47.92
2023-03-26T20:06:41.744Z,49.47
2023-03-26T20:09:12.656Z,49.56
2023-03-26T20:11:40.941Z,49.77
2023-03-26T20:14:25.812Z,49.60
2023-03-26T20:16:53.127Z,49.95
2023-03-26T20:19:20.592Z,51.17
2023-03-26T20:21:48.962Z,51.99
2023-03-26T20:24:17.825Z,52.31
2023-03-26T20:26:46.127Z,52.72
2023-03-26T20:29:13.607Z,52.66
2023-03-26T20:31:43.742Z,52.24
2023-03-26T20:34:18.625Z,53.28
2023-03-26T20:36:47.157Z,53.17
2023-03-26T20:39:14.614Z,52.48
2023-03-26T20:41:48.324Z,52.62
2023-03-26T20:44:18.199Z,51.52
2023-03-26T20:46:48.315Z,51.02
2023-03-26T20:49:15.987Z,51.21
2023-03-26T20:51:45.329Z,52.65
2023-03-26T20:54:16.186Z,52.61
2023-03-26T20:56:43.508Z,52.49
2023-03-26T20:59:11.816Z,53.44
2023-03-26T21:01:38.946Z,54.29
2023-03-26T21:04:06.716Z,53.49
2023-03-26T21:06:33.552Z,53.05
2023-03-26T21:09:00.942Z,53.00
2023-03-26T21:12:05.129Z,52.90
2023-03-26T21:14:44.178Z,52.62
2023-03-26T21:17:17.480Z,52.07
2023-03-26T21:19:45.836Z,52.10
2023-03-26T21:22:25.835Z,53.33
2023-03-26T21:25:06.183Z,53.48
2023-03-26T21:27:51.606Z,50.25
2023-03-26T21:30:18.836Z,52.21
2023-03-26T21:32:46.790Z,51.88
2023-03-26T21:35:16.620Z,50.40
2023-03-26T21:37:49.048Z,51.01
2023-03-26T21:40:18.784Z,51.01
2023-03-26T21:42:48.283Z,51.40
2023-03-26T21:45:16.208Z,51.46
2023-03-26T21:47:43.653Z,49.88
2023-03-26T21:50:14.277Z,49.87
2023-03-26T21:52:47.344Z,50.18
2023-03-26T21:55:21.820Z,49.21
2023-03-26T21:58:13.354Z,49.35
2023-03-26T22:01:16.748Z,49.72
2023-03-26T22:03:55.082Z,49.11
2023-03-26T22:06:43.246Z,49.66
2023-03-26T22:09:12.948Z,49.79
2023-03-26T22:11:42.650Z,49.63
2023-03-26T22:14:11.811Z,48.63
2023-03-26T22:16:38.731Z,47.79
2023-03-26T22:19:07.408Z,47.97
2023-03-26T22:21:36.421Z,48.46
2023-03-26T22:24:04.277Z,49.53
2023-03-26T22:26:31.954Z,49.31
2023-03-26T22:28:59.456Z,49.02
2023-03-26T22:31:26.544Z,48.73
2023-03-26T22:33:55.491Z,46.86
2023-03-26T22:36:23.661Z,46.89
2023-03-26T22:38:55.752Z,47.09
2023-03-26T22:41:23.092Z,47.00
2023-03-26T22:43:54.610Z,47.12
2023-03-26T22:46:22.811Z,47.28
2023-03-26T22:48:50.851Z,47.84
2023-03-26T22:51:19.275Z,48.36
2023-03-26T22:53:46.065Z,49.19
2023-03-26T22:56:14.900Z,49.56
2023-03-26T22:58:42.399Z,49.15
2023-03-26T23:01:12.628Z,49.45
2023-03-26T23:03:39.694Z,49.02
2023-03-26T23:06:09.783Z,49.05
2023-03-26T23:08:38.285Z,48.87
2023-03-26T23:11:20.007Z,49.06
2023-03-26T23:13:47.752Z,49.31
2023-03-26T23:16:16.791Z,49.26
2023-03-26T23:18:44.474Z,49.74
2023-03-26T23:21:20.183Z,49.76
2023-03-26T23:23:49.240Z,48.60
2023-03-26T23:26:16.952Z,46.95
2023-03-26T23:28:44.045Z,47.34
2023-03-26T23:31:12.948Z,47.40
2023-03-26T23:33:46.167Z,47.93
2023-03-26T23:36:18.369Z,48.15
2023-03-26T23:38:47.438Z,48.85
2023-03-26T23:41:16.353Z,48.82
2023-03-26T23:43:54.707Z,48.73
2023-03-26T23:46:24.845Z,46.61
2023-03-26T23:48:52.282Z,47.34
2023-03-26T23:51:20.442Z,46.86
2023-03-26T23:53:49.668Z,46.93
2023-03-26T23:56:17.258Z,46.27
2023-03-26T23:58:44.406Z,46.27
